Time;durP1;ratioP1;P1;durP2;ratioP2;P2;SDS_P1;SDS_P2;PMS_P1;PMS_P2;Temp;Humidity;BMP_temperature;BMP_pressure;BME280_temperature;BME280_humidity;BME280_pressure;Samples;Min_cycle;Max_cycle;Signal;HPM_P1;HPM_P2
2022/10/04 00:02:30;;;;;;;10.37;8.30;;;;;;;;;;5043124;28;20201;-63
2022/10/04 00:05:02;;;;;;;12.23;7.87;;;;;;;;;;5042958;28;20215;-63
2022/10/04 00:07:35;;;;;;;9.03;7.10;;;;;;;;;;5042971;28;20205;-63
2022/10/04 00:10:16;;;;;;;8.63;6.70;;;;;;;;;;5052984;28;20300;-63
2022/10/04 00:12:48;;;;;;;5.60;5.10;;;;;;;;;;5039753;28;20213;-62
2022/10/04 00:15:21;;;;;;;5.90;5.30;;;;;;;;;;5038203;28;20241;-62
2022/10/04 00:18:07;;;;;;;6.37;5.77;;;;;;;;;;5039923;28;20212;-63
2022/10/04 00:20:51;;;;;;;8.97;6.40;;;;;;;;;;5039007;28;20320;-63
2022/10/04 00:23:22;;;;;;;7.77;6.17;;;;;;;;;;5039788;28;20225;-64
2022/10/04 00:25:57;;;;;;;7.80;6.47;;;;;;;;;;5041431;28;20695;-63
2022/10/04 00:28:24;;;;;;;10.20;6.37;;;;;;;;;;5057328;28;21197;-62
2022/10/04 00:31:10;;;;;;;7.13;6.20;;;;;;;;;;5039479;28;20242;-62
2022/10/04 00:33:38;;;;;;;8.40;6.23;;;;;;;;;;5041572;28;20231;-63
2022/10/04 00:36:24;;;;;;;7.97;6.07;;;;;;;;;;5041248;28;20229;-62
2022/10/04 00:39:06;;;;;;;9.10;6.63;;;;;;;;;;5040957;28;20298;-64
2022/10/04 00:41:37;;;;;;;8.10;5.50;;;;;;;;;;5042282;28;20575;-63
2022/10/04 00:44:08;;;;;;;8.90;5.83;;;;;;;;;;5043240;28;20259;-63
2022/10/04 00:46:36;;;;;;;7.93;6.00;;;;;;;;;;5048973;28;20217;-63
2022/10/04 00:49:06;;;;;;;9.83;5.93;;;;;;;;;;5040519;28;20205;-63
2022/10/04 00:51:38;;;;;;;7.30;5.50;;;;;;;;;;5034545;28;20203;-63
2022/10/04 00:54:08;;;;;;;7.20;5.97;;;;;;;;;;5045756;28;20202;-63
2022/10/04 00:56:42;;;;;;;8.53;5.97;;;;;;;;;;5039051;28;20244;-63
2022/10/04 00:59:28;;;;;;;9.97;5.60;;;;;;;;;;5054372;28;20217;-63
2022/10/04 01:02:16;;;;;;;8.53;5.40;;;;;;;;;;5053505;28;20247;-63
2022/10/04 01:04:54;;;;;;;6.53;5.33;;;;;;;;;;5041507;28;20252;-63
2022/10/04 01:07:33;;;;;;;7.17;4.50;;;;;;;;;;5045780;28;20228;-63
2022/10/04 01:10:02;;;;;;;5.90;4.70;;;;;;;;;;5046387;28;20201;-63
2022/10/04 01:12:32;;;;;;;5.93;4.87;;;;;;;;;;5067015;28;20209;-63
2022/10/04 01:15:08;;;;;;;6.23;4.60;;;;;;;;;;5064618;28;20667;-63
2022/10/04 01:17:36;;;;;;;7.13;5.27;;;;;;;;;;5050814;28;20279;-63
2022/10/04 01:20:04;;;;;;;5.60;4.43;;;;;;;;;;5041564;28;20284;-63
2022/10/04 01:22:37;;;;;;;6.37;4.50;;;;;;;;;;5041387;28;20201;-62
2022/10/04 01:25:04;;;;;;;6.13;4.37;;;;;;;;;;5040671;28;20197;-62
2022/10/04 01:27:36;;;;;;;5.90;4.53;;;;;;;;;;5050868;28;20321;-62
2022/10/04 01:30:06;;;;;;;6.63;5.00;;;;;;;;;;5038728;28;20359;-62
2022/10/04 01:32:33;;;;;;;5.43;4.43;;;;;;;;;;5042316;28;20219;-63
2022/10/04 01:35:01;;;;;;;5.80;4.70;;;;;;;;;;5042725;28;25724;-62
2022/10/04 01:37:28;;;;;;;5.40;4.40;;;;;;;;;;5036690;28;20216;-62
2022/10/04 01:39:56;;;;;;;5.97;4.43;;;;;;;;;;5039040;28;20225;-63
2022/10/04 01:42:26;;;;;;;4.40;4.00;;;;;;;;;;5034880;28;20712;-62
2022/10/04 01:45:06;;;;;;;4.67;4.20;;;;;;;;;;5038203;28;20683;-62
2022/10/04 01:47:48;;;;;;;5.80;4.47;;;;;;;;;;5051483;28;20202;-63
2022/10/04 01:50:19;;;;;;;7.33;4.67;;;;;;;;;;5044401;28;20208;-64
2022/10/04 01:52:53;;;;;;;4.73;4.07;;;;;;;;;;5040819;28;20213;-64
2022/10/04 01:55:24;;;;;;;6.60;4.80;;;;;;;;;;5033975;28;20210;-62
2022/10/04 01:57:54;;;;;;;6.40;4.47;;;;;;;;;;5043800;28;20603;-62
2022/10/04 02:00:23;;;;;;;4.03;3.70;;;;;;;;;;5044718;28;20229;-62
2022/10/04 02:02:53;;;;;;;5.90;4.37;;;;;;;;;;5050798;28;20210;-64
2022/10/04 02:05:32;;;;;;;6.47;4.13;;;;;;;;;;5041284;28;20229;-63
2022/10/04 02:08:04;;;;;;;4.80;4.40;;;;;;;;;;5038895;28;20216;-62
2022/10/04 02:10:35;;;;;;;4.83;4.43;;;;;;;;;;5040000;28;20209;-62
2022/10/04 02:13:10;;;;;;;6.40;4.50;;;;;;;;;;5050573;28;20232;-64
2022/10/04 02:15:40;;;;;;;6.00;4.60;;;;;;;;;;5032852;28;20244;-63
2022/10/04 02:18:12;;;;;;;4.23;3.83;;;;;;;;;;5037354;28;20225;-62
2022/10/04 02:20:41;;;;;;;4.03;3.60;;;;;;;;;;5042495;28;20497;-64
2022/10/04 02:23:09;;;;;;;3.40;3.10;;;;;;;;;;5043488;28;20228;-62
2022/10/04 02:25:37;;;;;;;4.30;3.90;;;;;;;;;;5038364;28;20253;-64
2022/10/04 02:28:09;;;;;;;5.67;4.17;;;;;;;;;;5042480;28;20213;-62
2022/10/04 02:30:38;;;;;;;4.47;3.80;;;;;;;;;;5054178;28;20296;-62
2022/10/04 02:33:05;;;;;;;5.37;4.20;;;;;;;;;;5044956;28;20202;-64
2022/10/04 02:35:34;;;;;;;5.07;4.20;;;;;;;;;;5051131;28;20231;-63
2022/10/04 02:38:18;;;;;;;9.27;5.60;;;;;;;;;;5033128;28;23687;-65
2022/10/04 02:40:53;;;;;;;8.10;5.50;;;;;;;;;;5041674;28;20340;-64
2022/10/04 02:43:24;;;;;;;6.63;4.70;;;;;;;;;;5045174;28;20607;-62
2022/10/04 02:45:57;;;;;;;6.57;4.80;;;;;;;;;;5043804;28;20221;-64
2022/10/04 02:48:59;;;;;;;7.17;5.20;;;;;;;;;;5048865;28;20204;-64
2022/10/04 02:51:31;;;;;;;7.00;5.00;;;;;;;;;;4972080;28;20243;-62
2022/10/04 02:54:04;;;;;;;7.67;4.73;;;;;;;;;;5033366;28;20219;-63
2022/10/04 02:56:32;;;;;;;7.70;5.23;;;;;;;;;;5046702;28;20232;-64
2022/10/04 02:59:00;;;;;;;7.83;6.03;;;;;;;;;;5048477;28;20301;-63
2022/10/04 03:01:37;;;;;;;7.30;5.50;;;;;;;;;;5044977;28;20221;-63
2022/10/04 03:04:04;;;;;;;6.33;4.60;;;;;;;;;;5058486;28;20208;-64
2022/10/04 03:06:32;;;;;;;5.13;4.40;;;;;;;;;;5054970;28;20222;-64
2022/10/04 03:09:02;;;;;;;7.47;5.30;;;;;;;;;;5043936;28;20367;-62
2022/10/04 03:11:31;;;;;;;12.80;8.23;;;;;;;;;;5048709;28;20816;-65
2022/10/04 03:13:59;;;;;;;8.97;6.90;;;;;;;;;;5061067;28;20300;-62
2022/10/04 03:16:27;;;;;;;8.50;6.17;;;;;;;;;;5054805;28;20316;-62
2022/10/04 03:18:57;;;;;;;5.97;4.77;;;;;;;;;;5055070;28;20202;-63
2022/10/04 03:21:24;;;;;;;4.33;3.93;;;;;;;;;;5054357;28;20565;-64
2022/10/04 03:23:52;;;;;;;8.40;5.20;;;;;;;;;;5046526;28;20210;-63
2022/10/04 03:26:32;;;;;;;6.33;4.97;;;;;;;;;;5045875;28;20253;-63
2022/10/04 03:28:59;;;;;;;6.00;4.90;;;;;;;;;;5043242;28;20201;-63
2022/10/04 03:31:28;;;;;;;6.57;5.17;;;;;;;;;;5036987;28;20209;-64
2022/10/04 03:33:56;;;;;;;7.17;5.07;;;;;;;;;;5038682;28;20619;-63
2022/10/04 03:36:24;;;;;;;7.87;5.30;;;;;;;;;;5037558;28;20225;-63
2022/10/04 03:38:54;;;;;;;4.90;4.20;;;;;;;;;;5033300;28;20209;-63
2022/10/04 03:41:24;;;;;;;4.43;3.93;;;;;;;;;;5040324;28;20236;-62
2022/10/04 03:43:53;;;;;;;6.37;4.63;;;;;;;;;;5041876;28;20231;-62
2022/10/04 03:46:22;;;;;;;6.17;4.97;;;;;;;;;;5037196;28;20312;-63
2022/10/04 03:48:50;;;;;;;5.13;4.43;;;;;;;;;;5038530;28;20324;-64
2022/10/04 03:51:22;;;;;;;5.17;4.60;;;;;;;;;;5038200;28;20298;-64
2022/10/04 03:53:55;;;;;;;6.93;5.30;;;;;;;;;;5036685;28;20214;-64
2022/10/04 03:56:26;;;;;;;8.27;5.20;;;;;;;;;;5039108;28;20221;-63
2022/10/04 03:58:54;;;;;;;5.93;4.77;;;;;;;;;;5037550;28;21393;-63
2022/10/04 04:01:24;;;;;;;5.47;4.83;;;;;;;;;;5030659;28;20241;-63
2022/10/04 04:04:01;;;;;;;7.10;5.20;;;;;;;;;;5030712;28;20217;-64
2022/10/04 04:06:37;;;;;;;5.50;4.43;;;;;;;;;;5033229;28;20227;-62
2022/10/04 04:09:05;;;;;;;5.27;4.77;;;;;;;;;;5031312;28;20336;-64
2022/10/04 04:11:33;;;;;;;6.87;5.23;;;;;;;;;;5034138;28;20239;-63
2022/10/04 04:14:09;;;;;;;5.30;4.80;;;;;;;;;;5036273;28;20907;-63
2022/10/04 04:16:37;;;;;;;6.00;4.30;;;;;;;;;;5050202;28;20228;-63
2022/10/04 04:19:09;;;;;;;4.70;4.20;;;;;;;;;;5043426;28;20753;-63
2022/10/04 04:21:37;;;;;;;6.17;3.90;;;;;;;;;;5038032;28;20441;-60
2022/10/04 04:24:11;;;;;;;7.23;5.67;;;;;;;;;;5040276;28;20576;-62
2022/10/04 04:26:43;;;;;;;5.40;4.90;;;;;;;;;;5043307;28;21104;-62
2022/10/04 04:29:10;;;;;;;6.60;6.00;;;;;;;;;;5042125;28;20374;-62
2022/10/04 04:32:02;;;;;;;6.30;4.70;;;;;;;;;;5047855;28;20924;-61
2022/10/04 04:34:31;;;;;;;5.10;4.37;;;;;;;;;;5047660;28;20491;-65
2022/10/04 04:37:01;;;;;;;5.47;4.40;;;;;;;;;;5039983;28;20229;-62
2022/10/04 04:39:40;;;;;;;5.20;4.40;;;;;;;;;;5038919;28;20237;-61
2022/10/04 04:42:10;;;;;;;8.43;6.43;;;;;;;;;;5042627;28;20232;-62
2022/10/04 04:44:45;;;;;;;9.30;7.00;;;;;;;;;;5048491;28;20237;-62
2022/10/04 04:47:39;;;;;;;7.73;6.30;;;;;;;;;;5049363;28;20228;-62
2022/10/04 04:50:08;;;;;;;7.20;5.30;;;;;;;;;;5040852;28;20298;-62
2022/10/04 04:52:35;;;;;;;6.97;4.83;;;;;;;;;;5059942;28;20510;-64
2022/10/04 04:55:03;;;;;;;7.83;4.77;;;;;;;;;;5046835;28;21184;-62
2022/10/04 04:57:32;;;;;;;6.87;4.70;;;;;;;;;;5045856;28;20296;-62
2022/10/04 05:00:00;;;;;;;7.93;5.40;;;;;;;;;;5049459;28;20305;-62
2022/10/04 05:02:35;;;;;;;9.47;5.17;;;;;;;;;;5045518;28;20205;-64
2022/10/04 05:05:17;;;;;;;5.30;4.80;;;;;;;;;;5042829;28;20214;-62
2022/10/04 05:07:44;;;;;;;5.60;4.70;;;;;;;;;;5052117;28;20212;-64
2022/10/04 05:10:31;;;;;;;8.30;4.87;;;;;;;;;;5040269;28;20229;-63
2022/10/04 05:13:03;;;;;;;12.33;4.80;;;;;;;;;;5059034;28;20304;-63
2022/10/04 05:15:37;;;;;;;5.80;4.67;;;;;;;;;;5061287;28;20682;-63
2022/10/04 05:18:23;;;;;;;4.87;4.47;;;;;;;;;;5059443;28;20720;-62
2022/10/04 05:20:52;;;;;;;6.70;4.87;;;;;;;;;;5040919;28;20240;-62
2022/10/04 05:23:20;;;;;;;5.83;5.17;;;;;;;;;;5042632;28;20209;-62
2022/10/04 05:25:49;;;;;;;10.50;5.47;;;;;;;;;;5044123;28;20374;-62
2022/10/04 05:28:17;;;;;;;7.63;4.80;;;;;;;;;;5032837;28;20202;-63
2022/10/04 05:30:48;;;;;;;7.10;5.20;;;;;;;;;;5043395;28;20682;-63
2022/10/04 05:33:26;;;;;;;5.30;4.80;;;;;;;;;;5044319;28;20205;-63
2022/10/04 05:36:12;;;;;;;6.63;4.70;;;;;;;;;;5040516;28;20322;-61
2022/10/04 05:38:39;;;;;;;9.03;4.30;;;;;;;;;;5042716;28;20860;-62
2022/10/04 05:41:07;;;;;;;7.87;6.93;;;;;;;;;;5043554;28;20239;-63
2022/10/04 05:43:34;;;;;;;30.17;23.47;;;;;;;;;;5047581;28;20201;-62
2022/10/04 05:46:07;;;;;;;67.30;48.57;;;;;;;;;;5041894;28;20267;-62
2022/10/04 05:48:35;;;;;;;27.67;23.23;;;;;;;;;;5049164;28;20198;-62
2022/10/04 05:51:12;;;;;;;17.33;14.23;;;;;;;;;;5040443;28;20206;-61
2022/10/04 05:53:41;;;;;;;14.13;11.67;;;;;;;;;;5043570;28;20278;-64
2022/10/04 05:56:27;;;;;;;17.00;15.20;;;;;;;;;;5046638;28;20221;-62
2022/10/04 05:59:13;;;;;;;13.50;12.00;;;;;;;;;;5045292;28;21236;-62
2022/10/04 06:01:41;;;;;;;10.90;9.37;;;;;;;;;;5045146;28;20237;-63
2022/10/04 06:04:27;;;;;;;13.43;8.30;;;;;;;;;;5045118;28;20298;-63
2022/10/04 06:07:09;;;;;;;9.43;7.30;;;;;;;;;;5044673;28;20312;-62
2022/10/04 06:09:36;;;;;;;10.57;7.03;;;;;;;;;;5055234;28;20728;-62
2022/10/04 06:12:08;;;;;;;8.83;6.10;;;;;;;;;;5047279;28;20216;-61
2022/10/04 06:14:35;;;;;;;8.77;5.90;;;;;;;;;;5050514;28;20209;-64
2022/10/04 06:17:03;;;;;;;9.77;5.70;;;;;;;;;;5046545;28;20312;-62
2022/10/04 06:19:47;;;;;;;6.77;5.13;;;;;;;;;;5045615;28;20244;-62
2022/10/04 06:22:18;;;;;;;6.00;5.17;;;;;;;;;;5046480;28;20830;-62
2022/10/04 06:25:08;;;;;;;6.83;5.20;;;;;;;;;;5045610;28;20202;-62
2022/10/04 06:27:40;;;;;;;9.57;5.63;;;;;;;;;;5048020;28;20573;-62
2022/10/04 06:30:15;;;;;;;5.97;4.43;;;;;;;;;;5048522;28;20210;-62
2022/10/04 06:32:43;;;;;;;7.33;4.70;;;;;;;;;;5044522;28;20212;-62
2022/10/04 06:35:19;;;;;;;9.27;5.70;;;;;;;;;;5044209;28;20212;-63
2022/10/04 06:38:00;;;;;;;8.57;5.47;;;;;;;;;;5048076;28;20210;-63
2022/10/04 06:40:46;;;;;;;6.13;4.87;;;;;;;;;;5046436;28;20209;-62
2022/10/04 06:43:23;;;;;;;4.97;4.57;;;;;;;;;;5043576;28;20209;-63
2022/10/04 06:45:53;;;;;;;6.80;4.83;;;;;;;;;;5042206;28;20305;-63
2022/10/04 06:48:50;;;;;;;4.90;4.23;;;;;;;;;;5041228;28;20227;-62
2022/10/04 06:51:20;;;;;;;6.40;4.90;;;;;;;;;;5043109;28;20275;-62
2022/10/04 06:53:48;;;;;;;5.90;4.43;;;;;;;;;;5037008;28;20588;-62
2022/10/04 06:56:31;;;;;;;4.90;4.40;;;;;;;;;;5040958;28;20217;-62
2022/10/04 06:59:02;;;;;;;6.20;4.80;;;;;;;;;;5039584;28;20795;-63
2022/10/04 07:01:33;;;;;;;6.07;4.70;;;;;;;;;;5041726;28;20364;-63
2022/10/04 07:04:23;;;;;;;9.73;5.43;;;;;;;;;;5033498;28;20217;-62
2022/10/04 07:07:25;;;;;;;8.50;5.13;;;;;;;;;;5029060;28;20312;-62
2022/10/04 07:10:13;;;;;;;7.50;5.50;;;;;;;;;;5005594;28;20282;-63
2022/10/04 07:12:43;;;;;;;9.50;5.67;;;;;;;;;;5038269;28;20223;-61
2022/10/04 07:15:19;;;;;;;7.20;4.63;;;;;;;;;;5049786;28;20309;-65
2022/10/04 07:17:48;;;;;;;6.17;3.77;;;;;;;;;;5045336;28;20862;-64
2022/10/04 07:20:26;;;;;;;6.67;4.03;;;;;;;;;;5046477;28;20205;-65
2022/10/04 07:23:02;;;;;;;5.40;3.63;;;;;;;;;;5043922;28;20331;-60
2022/10/04 07:25:31;;;;;;;5.40;3.60;;;;;;;;;;5054283;28;20217;-62
2022/10/04 07:31:02;;;;;;;6.20;3.97;;;;;;;;;;5042182;28;20220;-62
2022/10/04 07:33:32;;;;;;;4.40;4.00;;;;;;;;;;5043290;28;20209;-65
2022/10/04 07:36:07;;;;;;;6.73;4.83;;;;;;;;;;5041348;28;20322;-62
2022/10/04 07:38:37;;;;;;;5.73;4.40;;;;;;;;;;5040826;28;20680;-62
2022/10/04 07:41:10;;;;;;;5.27;4.77;;;;;;;;;;5041226;28;20230;-64
2022/10/04 07:43:45;;;;;;;4.87;4.30;;;;;;;;;;5031899;28;21036;-64
2022/10/04 07:46:31;;;;;;;6.17;4.03;;;;;;;;;;5039627;28;20932;-64
2022/10/04 07:48:59;;;;;;;5.70;3.83;;;;;;;;;;5034849;28;20193;-64
2022/10/04 07:51:36;;;;;;;7.37;4.23;;;;;;;;;;5041531;28;21743;-63
2022/10/04 07:54:09;;;;;;;6.13;4.23;;;;;;;;;;5042637;28;20214;-64
2022/10/04 07:56:36;;;;;;;5.53;4.37;;;;;;;;;;5037941;28;20226;-64
2022/10/04 07:59:22;;;;;;;5.13;4.50;;;;;;;;;;5043244;28;20197;-64
2022/10/04 08:01:53;;;;;;;8.60;4.50;;;;;;;;;;5041972;28;20606;-63
2022/10/04 08:04:28;;;;;;;5.63;4.17;;;;;;;;;;5056223;28;20224;-64
2022/10/04 08:06:58;;;;;;;6.63;3.97;;;;;;;;;;5049024;28;20235;-62
2022/10/04 08:09:29;;;;;;;5.50;4.43;;;;;;;;;;5043061;28;20672;-64
2022/10/04 08:12:15;;;;;;;5.60;4.20;;;;;;;;;;5040914;28;20212;-65
2022/10/04 08:14:50;;;;;;;6.40;4.40;;;;;;;;;;5060577;28;20255;-64
2022/10/04 08:17:37;;;;;;;8.57;4.83;;;;;;;;;;5043203;28;20229;-64
2022/10/04 08:20:22;;;;;;;7.90;4.53;;;;;;;;;;5055986;28;20362;-64
2022/10/04 08:23:12;;;;;;;7.50;4.53;;;;;;;;;;5061937;28;20320;-64
2022/10/04 08:25:42;;;;;;;6.17;4.17;;;;;;;;;;5048022;28;20712;-62
2022/10/04 08:31:20;;;;;;;5.20;4.47;;;;;;;;;;5041045;28;20229;-64
2022/10/04 08:33:47;;;;;;;5.63;4.43;;;;;;;;;;5054531;28;20274;-63
2022/10/04 08:36:18;;;;;;;4.43;4.03;;;;;;;;;;5044372;28;20281;-63
2022/10/04 08:38:52;;;;;;;4.50;3.93;;;;;;;;;;5043326;28;20213;-64
2022/10/04 08:41:39;;;;;;;7.50;5.10;;;;;;;;;;5041107;28;20245;-64
2022/10/04 08:44:07;;;;;;;5.13;4.03;;;;;;;;;;5050856;28;20262;-64
2022/10/04 08:46:35;;;;;;;6.43;4.40;;;;;;;;;;5046903;28;20225;-64
2022/10/04 08:49:03;;;;;;;7.10;5.00;;;;;;;;;;5046888;28;20220;-64
2022/10/04 08:51:40;;;;;;;5.97;4.90;;;;;;;;;;5039285;28;20309;-63
2022/10/04 08:54:26;;;;;;;7.43;6.00;;;;;;;;;;5035533;28;20930;-65
2022/10/04 08:57:14;;;;;;;5.17;4.67;;;;;;;;;;5042495;28;20362;-64
2022/10/04 09:00:21;;;;;;;9.48;4.50;;;;;;;;;;5057367;28;20217;-64
2022/10/04 09:03:00;;;;;;;5.45;4.00;;;;;;;;;;4956839;28;20396;-62
2022/10/04 09:05:37;;;;;;;6.00;4.20;;;;;;;;;;5040005;28;20233;-63
2022/10/04 09:08:08;;;;;;;4.10;3.22;;;;;;;;;;5064126;28;20204;-63
2022/10/04 09:10:49;;;;;;;5.97;3.78;;;;;;;;;;5061104;28;20210;-64
2022/10/04 09:13:23;;;;;;;6.53;3.53;;;;;;;;;;5056170;28;20213;-63
2022/10/04 09:15:52;;;;;;;5.00;3.50;;;;;;;;;;5058074;28;20975;-63
2022/10/04 09:18:29;;;;;;;3.60;3.30;;;;;;;;;;5048696;28;20623;-63
2022/10/04 09:21:00;;;;;;;4.60;3.20;;;;;;;;;;5041396;28;20205;-62
2022/10/04 09:23:30;;;;;;;5.13;3.45;;;;;;;;;;5042157;28;20209;-62
2022/10/04 09:25:57;;;;;;;9.70;3.80;;;;;;;;;;5040362;28;20222;-63
2022/10/04 09:28:28;;;;;;;8.87;3.80;;;;;;;;;;5043904;28;20285;-64
2022/10/04 09:31:28;;;;;;;3.50;3.20;;;;;;;;;;5050858;28;20244;-64
2022/10/04 09:34:05;;;;;;;4.00;3.45;;;;;;;;;;5006281;28;20209;-62
2022/10/04 09:36:39;;;;;;;5.30;3.63;;;;;;;;;;5046867;28;20223;-64
2022/10/04 09:39:26;;;;;;;8.47;3.67;;;;;;;;;;5044683;28;20206;-63
2022/10/04 09:42:17;;;;;;;10.15;3.70;;;;;;;;;;5042715;28;20236;-63
2022/10/04 09:45:19;;;;;;;4.00;3.30;;;;;;;;;;5046656;28;20205;-63
2022/10/04 09:48:06;;;;;;;4.70;3.58;;;;;;;;;;4985787;28;20326;-63
2022/10/04 09:50:50;;;;;;;5.15;3.53;;;;;;;;;;5037012;28;20201;-63
2022/10/04 09:53:27;;;;;;;4.57;3.10;;;;;;;;;;5045256;28;20213;-63
2022/10/04 09:56:00;;;;;;;4.10;3.20;;;;;;;;;;5043777;28;20230;-62
2022/10/04 09:58:47;;;;;;;6.70;3.28;;;;;;;;;;5044346;28;20314;-63
2022/10/04 10:01:28;;;;;;;3.38;3.10;;;;;;;;;;5045011;28;20212;-63
2022/10/04 10:04:05;;;;;;;4.07;3.50;;;;;;;;;;5046331;28;20210;-63
2022/10/04 10:06:45;;;;;;;6.72;3.50;;;;;;;;;;5040409;28;20246;-63
2022/10/04 10:15:27;;;;;;;7.88;3.05;;;;;;;;;;5044507;28;20209;-66
2022/10/04 10:18:04;;;;;;;10.30;2.78;;;;;;;;;;5004568;28;20205;-63
2022/10/04 10:20:59;;;;;;;7.40;2.92;;;;;;;;;;5044949;28;20304;-64
2022/10/04 10:23:44;;;;;;;18.73;3.60;;;;;;;;;;5042637;28;20228;-64
2022/10/04 10:26:35;;;;;;;3.63;2.58;;;;;;;;;;5048927;28;20252;-64
2022/10/04 10:29:15;;;;;;;5.75;3.45;;;;;;;;;;5037789;28;20212;-62
2022/10/04 10:31:43;;;;;;;8.50;4.88;;;;;;;;;;5032115;28;20209;-64
2022/10/04 10:34:33;;;;;;;6.20;3.58;;;;;;;;;;5039258;28;20829;-64
2022/10/04 10:37:17;;;;;;;8.35;5.57;;;;;;;;;;5057937;28;20448;-62
2022/10/04 10:39:55;;;;;;;4.78;3.58;;;;;;;;;;5030591;28;20657;-64
2022/10/04 10:42:38;;;;;;;4.45;3.28;;;;;;;;;;5032100;28;20233;-64
2022/10/04 10:45:21;;;;;;;3.58;2.85;;;;;;;;;;5027559;28;20209;-64
2022/10/04 10:48:00;;;;;;;5.10;2.30;;;;;;;;;;5026798;28;20206;-65
2022/10/04 10:50:59;;;;;;;2.38;2.10;;;;;;;;;;5040831;28;20324;-64
2022/10/04 10:53:32;;;;;;;3.10;2.35;;;;;;;;;;5046368;28;20305;-63
2022/10/04 10:56:03;;;;;;;2.78;2.40;;;;;;;;;;5044771;28;20686;-62
2022/10/04 10:58:43;;;;;;;2.50;2.30;;;;;;;;;;5051029;28;20206;-64
2022/10/04 11:01:19;;;;;;;4.55;2.40;;;;;;;;;;5060801;28;20204;-63
2022/10/04 11:04:06;;;;;;;3.55;2.47;;;;;;;;;;5050859;28;20201;-64
2022/10/04 11:06:52;;;;;;;4.75;2.25;;;;;;;;;;5050077;28;20236;-63
2022/10/04 11:09:26;;;;;;;3.17;2.00;;;;;;;;;;5048571;28;20211;-64
2022/10/04 11:12:11;;;;;;;1.95;1.85;;;;;;;;;;5050814;28;20206;-64
2022/10/04 11:14:55;;;;;;;3.70;2.10;;;;;;;;;;5074780;28;20214;-62
2022/10/04 11:17:24;;;;;;;2.25;1.83;;;;;;;;;;5050649;28;20230;-64
2022/10/04 11:19:54;;;;;;;2.10;1.70;;;;;;;;;;5045524;28;20201;-64
2022/10/04 11:22:22;;;;;;;2.10;1.90;;;;;;;;;;5044338;28;20232;-62
2022/10/04 11:24:52;;;;;;;2.42;1.50;;;;;;;;;;5042187;28;20212;-63
2022/10/04 11:27:20;;;;;;;1.67;1.58;;;;;;;;;;5044067;28;20308;-64
2022/10/04 11:30:02;;;;;;;4.38;1.70;;;;;;;;;;5041695;28;20680;-62
2022/10/04 11:32:36;;;;;;;2.50;1.70;;;;;;;;;;5054933;28;20362;-63
2022/10/04 11:35:17;;;;;;;3.22;1.60;;;;;;;;;;5049024;28;20197;-63
2022/10/04 11:37:46;;;;;;;2.67;1.70;;;;;;;;;;5045936;28;20218;-63
2022/10/04 11:40:16;;;;;;;4.50;1.50;;;;;;;;;;5049793;28;20731;-63
2022/10/04 11:42:53;;;;;;;2.22;1.40;;;;;;;;;;5045562;28;20788;-64
2022/10/04 11:45:32;;;;;;;3.42;1.35;;;;;;;;;;5042980;28;20322;-63
2022/10/04 11:48:19;;;;;;;1.95;1.45;;;;;;;;;;5047109;28;20197;-64
2022/10/04 11:51:06;;;;;;;2.17;1.50;;;;;;;;;;5046884;28;20865;-63
2022/10/04 11:53:38;;;;;;;2.08;1.40;;;;;;;;;;5042202;28;20217;-64
2022/10/04 11:56:28;;;;;;;2.20;1.30;;;;;;;;;;5043590;28;20637;-62
2022/10/04 11:59:02;;;;;;;1.90;1.40;;;;;;;;;;5044949;28;20296;-64
2022/10/04 12:01:45;;;;;;;1.50;1.40;;;;;;;;;;5041303;28;20214;-64
2022/10/04 12:04:16;;;;;;;3.92;1.60;;;;;;;;;;5045758;28;20639;-64
2022/10/04 12:06:50;;;;;;;1.52;1.27;;;;;;;;;;5059875;28;20225;-64
2022/10/04 12:09:17;;;;;;;1.85;1.50;;;;;;;;;;5047574;28;20231;-64
2022/10/04 12:14:53;;;;;;;1.30;1.20;;;;;;;;;;5039519;28;20260;-63
2022/10/04 12:17:39;;;;;;;1.55;1.45;;;;;;;;;;5039996;28;20232;-64
2022/10/04 12:20:06;;;;;;;2.58;1.75;;;;;;;;;;5042478;28;20230;-63
2022/10/04 12:22:45;;;;;;;3.70;1.50;;;;;;;;;;5037563;28;20258;-62
2022/10/04 12:25:25;;;;;;;2.97;1.20;;;;;;;;;;5037481;28;20208;-63
2022/10/04 12:27:56;;;;;;;4.05;1.40;;;;;;;;;;5038778;28;20832;-63
2022/10/04 12:30:23;;;;;;;1.25;1.15;;;;;;;;;;5042717;28;20210;-63
2022/10/04 12:33:02;;;;;;;1.98;1.23;;;;;;;;;;5041976;28;20206;-63
2022/10/04 12:35:48;;;;;;;2.58;1.20;;;;;;;;;;5040471;28;20608;-63
2022/10/04 12:38:25;;;;;;;1.90;1.10;;;;;;;;;;5044726;28;20296;-63
2022/10/04 12:41:11;;;;;;;2.22;1.50;;;;;;;;;;5040305;28;20301;-63
2022/10/04 12:43:39;;;;;;;2.45;1.35;;;;;;;;;;5049735;28;20224;-63
2022/10/04 12:46:06;;;;;;;3.03;1.60;;;;;;;;;;5063793;28;20287;-63
2022/10/04 12:48:49;;;;;;;2.42;1.50;;;;;;;;;;5056884;28;20213;-63
2022/10/04 12:51:38;;;;;;;2.45;1.33;;;;;;;;;;5056191;28;20399;-63
2022/10/04 12:54:21;;;;;;;2.60;1.45;;;;;;;;;;5059276;28;20213;-63
2022/10/04 12:57:01;;;;;;;2.80;1.60;;;;;;;;;;5049514;28;20268;-63
2022/10/04 12:59:35;;;;;;;2.45;1.40;;;;;;;;;;5050712;28;20300;-64
2022/10/04 13:02:05;;;;;;;3.55;1.60;;;;;;;;;;5046543;28;20201;-63
2022/10/04 13:04:39;;;;;;;1.95;1.50;;;;;;;;;;5055088;28;20313;-64
2022/10/04 13:07:16;;;;;;;1.85;1.23;;;;;;;;;;5045682;28;20229;-63
2022/10/04 13:10:02;;;;;;;4.03;1.30;;;;;;;;;;5039821;28;20221;-63
2022/10/04 13:13:09;;;;;;;3.13;1.35;;;;;;;;;;5063151;28;20217;-63
2022/10/04 13:15:41;;;;;;;1.60;1.50;;;;;;;;;;5064955;28;20317;-62
2022/10/04 13:18:29;;;;;;;2.67;1.27;;;;;;;;;;5046538;28;20686;-63
2022/10/04 13:21:07;;;;;;;2.30;1.17;;;;;;;;;;5049909;28;20205;-63
2022/10/04 13:23:35;;;;;;;4.40;1.30;;;;;;;;;;5052846;28;20221;-63
2022/10/04 13:26:02;;;;;;;6.47;1.50;;;;;;;;;;5064898;28;20223;-63
2022/10/04 13:28:37;;;;;;;3.25;1.30;;;;;;;;;;5047492;28;20210;-63
2022/10/04 13:31:08;;;;;;;1.33;1.20;;;;;;;;;;5044916;28;20209;-63
2022/10/04 13:33:42;;;;;;;3.58;1.35;;;;;;;;;;5047325;28;20209;-63
2022/10/04 13:36:12;;;;;;;1.73;1.02;;;;;;;;;;5039581;28;20230;-63
2022/10/04 13:38:48;;;;;;;1.75;1.10;;;;;;;;;;5047829;28;20718;-63
2022/10/04 13:41:32;;;;;;;1.83;1.20;;;;;;;;;;5058764;28;20543;-64
2022/10/04 13:44:09;;;;;;;1.33;1.08;;;;;;;;;;5051552;28;20221;-64
2022/10/04 13:46:55;;;;;;;1.30;1.00;;;;;;;;;;5060803;28;20220;-63
2022/10/04 13:49:28;;;;;;;1.13;0.90;;;;;;;;;;5044678;28;20211;-63
2022/10/04 13:58:06;;;;;;;0.90;0.90;;;;;;;;;;5049941;28;20802;-64
2022/10/04 14:00:52;;;;;;;0.95;0.95;;;;;;;;;;5047890;28;20198;-64
2022/10/04 14:03:30;;;;;;;4.32;1.00;;;;;;;;;;5056207;28;20312;-63
2022/10/04 14:06:04;;;;;;;1.83;1.00;;;;;;;;;;5055122;28;20520;-63
2022/10/04 14:08:55;;;;;;;1.23;0.77;;;;;;;;;;5058461;28;20194;-64
2022/10/04 14:11:23;;;;;;;0.85;0.77;;;;;;;;;;5049703;28;20198;-63
2022/10/04 14:14:09;;;;;;;2.00;0.90;;;;;;;;;;5060609;28;20336;-65
2022/10/04 14:17:00;;;;;;;1.17;1.10;;;;;;;;;;5055625;28;20230;-64
2022/10/04 14:19:41;;;;;;;0.90;0.90;;;;;;;;;;5023890;28;20966;-63
2022/10/04 14:22:10;;;;;;;1.40;1.30;;;;;;;;;;5058624;28;20206;-62
2022/10/04 14:24:56;;;;;;;1.38;0.90;;;;;;;;;;5047020;28;20193;-63
2022/10/04 14:27:27;;;;;;;1.25;1.25;;;;;;;;;;5053473;28;20813;-63
2022/10/04 14:29:54;;;;;;;1.02;1.02;;;;;;;;;;5045783;28;20204;-65
2022/10/04 14:32:22;;;;;;;3.25;1.20;;;;;;;;;;5039194;28;20243;-63
2022/10/04 14:34:54;;;;;;;1.45;1.13;;;;;;;;;;5056600;28;20233;-63
2022/10/04 14:37:40;;;;;;;2.00;1.08;;;;;;;;;;5056855;28;20703;-63
2022/10/04 14:40:07;;;;;;;1.40;1.30;;;;;;;;;;5075063;28;20301;-65
2022/10/04 14:42:43;;;;;;;2.22;1.38;;;;;;;;;;5054892;28;20754;-63
2022/10/04 14:45:15;;;;;;;1.33;1.20;;;;;;;;;;5059831;28;20290;-64
2022/10/04 14:48:01;;;;;;;0.98;0.98;;;;;;;;;;5053046;28;20211;-63
2022/10/04 14:50:40;;;;;;;0.90;0.90;;;;;;;;;;5051771;28;20570;-63
2022/10/04 14:53:07;;;;;;;2.90;1.25;;;;;;;;;;5071946;28;20631;-64
2022/10/04 14:55:37;;;;;;;3.17;1.00;;;;;;;;;;5053179;28;20245;-64
2022/10/04 14:58:30;;;;;;;1.02;1.00;;;;;;;;;;5054566;28;20205;-66
2022/10/04 15:01:16;;;;;;;1.38;1.27;;;;;;;;;;5049394;28;20580;-63
2022/10/04 15:03:48;;;;;;;4.75;2.75;;;;;;;;;;5063090;28;20221;-64
2022/10/04 15:06:26;;;;;;;4.25;1.58;;;;;;;;;;5056351;28;20363;-64
2022/10/04 15:09:06;;;;;;;3.10;1.30;;;;;;;;;;5047766;28;21727;-65
2022/10/04 15:11:39;;;;;;;1.23;1.13;;;;;;;;;;5058023;28;21205;-64
2022/10/04 15:14:39;;;;;;;0.90;0.90;;;;;;;;;;5072420;28;20213;-63
2022/10/04 15:17:29;;;;;;;1.52;1.30;;;;;;;;;;4995849;28;20686;-64
2022/10/04 15:20:07;;;;;;;1.42;1.33;;;;;;;;;;5039700;28;20719;-64
2022/10/04 15:22:38;;;;;;;1.50;1.40;;;;;;;;;;5045137;28;20208;-62
2022/10/04 15:25:25;;;;;;;1.42;1.17;;;;;;;;;;5042677;28;20289;-62
2022/10/04 15:27:55;;;;;;;2.78;1.30;;;;;;;;;;5030895;28;20670;-63
2022/10/04 15:30:23;;;;;;;2.28;1.50;;;;;;;;;;5045334;28;20216;-64
2022/10/04 15:32:50;;;;;;;1.35;1.25;;;;;;;;;;5051523;28;20292;-64
2022/10/04 15:35:21;;;;;;;2.15;1.30;;;;;;;;;;5046315;28;20296;-64
2022/10/04 15:38:28;;;;;;;3.45;1.27;;;;;;;;;;5055342;28;20690;-64
2022/10/04 15:41:02;;;;;;;1.80;1.40;;;;;;;;;;4959809;28;20366;-64
2022/10/04 15:43:31;;;;;;;2.05;1.50;;;;;;;;;;4998436;28;20319;-62
2022/10/04 15:46:00;;;;;;;2.45;1.30;;;;;;;;;;5055022;28;20269;-63
2022/10/04 15:48:48;;;;;;;1.55;1.45;;;;;;;;;;5045817;28;20217;-65
2022/10/04 15:51:22;;;;;;;1.77;1.13;;;;;;;;;;5034665;28;20208;-65
2022/10/04 15:54:09;;;;;;;1.88;1.50;;;;;;;;;;5046172;28;20208;-63
2022/10/04 15:56:40;;;;;;;4.22;1.40;;;;;;;;;;5035642;28;20232;-63